Whitecourt Airport
CYZU : rendu visible

Aérodrome :











RETROUVEZ-NOUS SUR...

 
LOGIN :

S'inscrire | Disclaimer

   EN    FR    IT 

 









Légende :    VFR   VFR Marginal   IFR   IFR Intensif   IFR Très Intensif
Visi : 
Plafond : 
>= 8 km
>= 3000ft
5 à 8 km
1000 à 3000 ft
1500m à 5 km
500 à 1000 ft
800 à 1500m
200 à 500 ft
< 800m
< 200 ft
Symboles :   Orages  Brouillard  Fortes neiges  Fortes précipitations  Vent > 20 kt






- Altitude de l'aérodrome : 2567 ft
- Code IATA : YZU


CYZU - Whitecourt

DERNIER METAR :
  • 222200Z 27003KT 15SM FEW150 OVC210 09/M04 A2969 RMK AC2CI6 SLP083 DENSITY ALT 2700FT

METARs EXPIRÉS :
  • 222100Z 28008G15KT 15SM FEW060 FEW150 OVC220 09/M04 A2970 RMK SC1AC1CI7 SC TR SLP086 DENSITY ALT 2800FT
  • 222000Z 29008KT 15SM FEW150 BKN210 08/M03 A2971 RMK AC1CI6 SLP086 DENSITY ALT 2600FT

Prévision TAF périmée.



MET'MAP, la Météo Aéronautique d'un coup d'oeil ! - Copyright ORBIFLY Décembre 2007 - Disclaimer

ORBIFLY MET'MAP TEAM :

Programmation & Développement : Alexandra Zaïnal
Conception & Développement : Baudouin d'Aumeries
Co-Programmation & Développement : Marc-Olivier Méhu
Soutien technique & logistique : Manuel Goepfert

Contact : metmap@orbifly.com




SOURCES & CREDITS :

   NOAA       Earth
Advisory